sensor_id;sensor_type;location;lat;lon;timestamp;temperature;humidity
41876;DHT22;27555;50.808;4.402;2023-08-31T00:02:12;14.20;99.90
41876;DHT22;27555;50.808;4.402;2023-08-31T00:04:38;14.20;99.90
41876;DHT22;27555;50.808;4.402;2023-08-31T00:07:04;14.20;99.90
41876;DHT22;27555;50.808;4.402;2023-08-31T00:09:29;14.20;99.90
41876;DHT22;27555;50.808;4.402;2023-08-31T00:11:55;14.20;99.90
41876;DHT22;27555;50.808;4.402;2023-08-31T00:14:22;14.30;99.90
41876;DHT22;27555;50.808;4.402;2023-08-31T00:16:48;14.40;99.90
41876;DHT22;27555;50.808;4.402;2023-08-31T00:19:14;14.30;99.90
41876;DHT22;27555;50.808;4.402;2023-08-31T00:21:40;14.40;99.90
41876;DHT22;27555;50.808;4.402;2023-08-31T00:24:06;14.40;99.90
41876;DHT22;27555;50.808;4.402;2023-08-31T00:26:32;14.60;99.90
41876;DHT22;27555;50.808;4.402;2023-08-31T00:28:58;14.50;99.90
41876;DHT22;27555;50.808;4.402;2023-08-31T00:31:24;14.40;99.90
41876;DHT22;27555;50.808;4.402;2023-08-31T00:33:50;14.40;99.90
41876;DHT22;27555;50.808;4.402;2023-08-31T00:36:15;14.30;99.90
41876;DHT22;27555;50.808;4.402;2023-08-31T00:38:43;14.50;99.90
41876;DHT22;27555;50.808;4.402;2023-08-31T00:41:09;14.50;99.90
41876;DHT22;27555;50.808;4.402;2023-08-31T00:43:34;14.60;99.90
41876;DHT22;27555;50.808;4.402;2023-08-31T00:46:00;14.60;99.90
41876;DHT22;27555;50.808;4.402;2023-08-31T00:48:26;14.70;99.90
41876;DHT22;27555;50.808;4.402;2023-08-31T00:50:52;14.70;99.90
41876;DHT22;27555;50.808;4.402;2023-08-31T00:53:18;14.70;99.90
41876;DHT22;27555;50.808;4.402;2023-08-31T00:55:46;14.60;99.90
41876;DHT22;27555;50.808;4.402;2023-08-31T00:58:13;14.60;99.90
41876;DHT22;27555;50.808;4.402;2023-08-31T01:01:03;14.70;99.90
41876;DHT22;27555;50.808;4.402;2023-08-31T01:03:35;14.80;99.90
41876;DHT22;27555;50.808;4.402;2023-08-31T01:09:18;14.80;99.90
41876;DHT22;27555;50.808;4.402;2023-08-31T01:11:57;14.70;99.90
41876;DHT22;27555;50.808;4.402;2023-08-31T01:14:27;14.70;99.90
41876;DHT22;27555;50.808;4.402;2023-08-31T01:16:57;14.60;99.90
41876;DHT22;27555;50.808;4.402;2023-08-31T01:19:48;14.60;99.90
41876;DHT22;27555;50.808;4.402;2023-08-31T01:22:32;14.50;99.90
41876;DHT22;27555;50.808;4.402;2023-08-31T01:24:59;14.60;99.90
41876;DHT22;27555;50.808;4.402;2023-08-31T01:27:31;14.60;99.90
41876;DHT22;27555;50.808;4.402;2023-08-31T01:29:57;14.60;99.90
41876;DHT22;27555;50.808;4.402;2023-08-31T01:32:23;14.60;99.90
41876;DHT22;27555;50.808;4.402;2023-08-31T01:34:50;14.60;99.90
41876;DHT22;27555;50.808;4.402;2023-08-31T01:37:34;14.50;99.90
41876;DHT22;27555;50.808;4.402;2023-08-31T01:40:07;14.40;99.90
41876;DHT22;27555;50.808;4.402;2023-08-31T01:42:36;14.30;99.90
41876;DHT22;27555;50.808;4.402;2023-08-31T01:45:03;14.30;99.90
41876;DHT22;27555;50.808;4.402;2023-08-31T01:47:30;14.30;99.90
41876;DHT22;27555;50.808;4.402;2023-08-31T01:49:56;14.30;99.90
41876;DHT22;27555;50.808;4.402;2023-08-31T01:52:22;14.20;99.90
41876;DHT22;27555;50.808;4.402;2023-08-31T01:54:48;14.40;99.90
41876;DHT22;27555;50.808;4.402;2023-08-31T01:57:14;14.40;99.90
41876;DHT22;27555;50.808;4.402;2023-08-31T01:59:39;14.30;99.90
41876;DHT22;27555;50.808;4.402;2023-08-31T02:02:05;14.30;99.90
41876;DHT22;27555;50.808;4.402;2023-08-31T02:04:30;14.10;99.90
41876;DHT22;27555;50.808;4.402;2023-08-31T02:06:56;14.00;99.90
41876;DHT22;27555;50.808;4.402;2023-08-31T02:09:22;14.20;99.90
41876;DHT22;27555;50.808;4.402;2023-08-31T02:11:47;14.20;99.90
41876;DHT22;27555;50.808;4.402;2023-08-31T02:14:14;14.30;99.90
41876;DHT22;27555;50.808;4.402;2023-08-31T02:16:39;14.30;99.90
41876;DHT22;27555;50.808;4.402;2023-08-31T02:19:05;14.20;99.90
41876;DHT22;27555;50.808;4.402;2023-08-31T02:21:30;14.20;99.90
41876;DHT22;27555;50.808;4.402;2023-08-31T02:23:56;14.10;99.90
41876;DHT22;27555;50.808;4.402;2023-08-31T02:26:22;14.20;99.90
41876;DHT22;27555;50.808;4.402;2023-08-31T02:28:47;14.20;99.90
41876;DHT22;27555;50.808;4.402;2023-08-31T02:31:16;14.30;99.90
41876;DHT22;27555;50.808;4.402;2023-08-31T02:33:41;14.30;99.90
41876;DHT22;27555;50.808;4.402;2023-08-31T02:36:07;14.30;99.90
41876;DHT22;27555;50.808;4.402;2023-08-31T02:38:33;14.30;99.90
41876;DHT22;27555;50.808;4.402;2023-08-31T02:40:58;14.50;99.90
41876;DHT22;27555;50.808;4.402;2023-08-31T02:43:24;14.50;99.90
41876;DHT22;27555;50.808;4.402;2023-08-31T02:45:58;14.50;99.90
41876;DHT22;27555;50.808;4.402;2023-08-31T02:48:24;14.50;99.90
41876;DHT22;27555;50.808;4.402;2023-08-31T02:50:49;14.50;99.90
41876;DHT22;27555;50.808;4.402;2023-08-31T02:53:15;14.40;99.90
41876;DHT22;27555;50.808;4.402;2023-08-31T02:55:42;14.40;99.90
41876;DHT22;27555;50.808;4.402;2023-08-31T02:58:07;14.40;99.90
41876;DHT22;27555;50.808;4.402;2023-08-31T03:00:33;14.40;99.90
41876;DHT22;27555;50.808;4.402;2023-08-31T03:02:59;14.30;99.90
41876;DHT22;27555;50.808;4.402;2023-08-31T03:05:25;14.40;99.90
41876;DHT22;27555;50.808;4.402;2023-08-31T03:07:50;14.30;99.90
41876;DHT22;27555;50.808;4.402;2023-08-31T03:10:16;14.30;99.90
41876;DHT22;27555;50.808;4.402;2023-08-31T03:12:42;14.20;99.90
41876;DHT22;27555;50.808;4.402;2023-08-31T03:15:08;14.20;99.90
41876;DHT22;27555;50.808;4.402;2023-08-31T03:17:33;14.20;99.90
41876;DHT22;27555;50.808;4.402;2023-08-31T03:19:59;14.20;99.90
41876;DHT22;27555;50.808;4.402;2023-08-31T03:22:25;14.30;99.90
41876;DHT22;27555;50.808;4.402;2023-08-31T03:24:50;14.30;99.90
41876;DHT22;27555;50.808;4.402;2023-08-31T03:27:16;14.30;99.90
41876;DHT22;27555;50.808;4.402;2023-08-31T03:29:42;14.30;99.90
41876;DHT22;27555;50.808;4.402;2023-08-31T03:32:07;14.30;99.90
41876;DHT22;27555;50.808;4.402;2023-08-31T03:34:33;14.50;99.90
41876;DHT22;27555;50.808;4.402;2023-08-31T03:36:59;14.50;99.90
41876;DHT22;27555;50.808;4.402;2023-08-31T03:39:25;14.50;99.90
41876;DHT22;27555;50.808;4.402;2023-08-31T03:41:50;14.60;99.90
41876;DHT22;27555;50.808;4.402;2023-08-31T03:44:16;14.60;99.90
41876;DHT22;27555;50.808;4.402;2023-08-31T03:46:42;14.60;99.90
41876;DHT22;27555;50.808;4.402;2023-08-31T03:49:08;14.60;99.90
41876;DHT22;27555;50.808;4.402;2023-08-31T03:51:34;14.50;99.90
41876;DHT22;27555;50.808;4.402;2023-08-31T03:54:00;14.50;99.90
41876;DHT22;27555;50.808;4.402;2023-08-31T03:56:25;14.40;99.90
41876;DHT22;27555;50.808;4.402;2023-08-31T03:58:52;14.40;99.90
41876;DHT22;27555;50.808;4.402;2023-08-31T04:01:17;14.30;99.90
41876;DHT22;27555;50.808;4.402;2023-08-31T04:03:43;14.30;99.90
41876;DHT22;27555;50.808;4.402;2023-08-31T04:06:09;14.30;99.90
41876;DHT22;27555;50.808;4.402;2023-08-31T04:08:34;14.40;99.90
41876;DHT22;27555;50.808;4.402;2023-08-31T04:11:00;14.30;99.90
41876;DHT22;27555;50.808;4.402;2023-08-31T04:13:26;14.30;99.90
41876;DHT22;27555;50.808;4.402;2023-08-31T04:15:52;14.20;99.90
41876;DHT22;27555;50.808;4.402;2023-08-31T04:18:19;14.20;99.90
41876;DHT22;27555;50.808;4.402;2023-08-31T04:20:49;14.20;99.90
41876;DHT22;27555;50.808;4.402;2023-08-31T04:23:15;14.10;99.90
41876;DHT22;27555;50.808;4.402;2023-08-31T04:25:41;14.10;99.90
41876;DHT22;27555;50.808;4.402;2023-08-31T04:28:07;14.10;99.90
41876;DHT22;27555;50.808;4.402;2023-08-31T04:30:33;14.00;99.90
41876;DHT22;27555;50.808;4.402;2023-08-31T04:32:58;13.90;99.90
41876;DHT22;27555;50.808;4.402;2023-08-31T04:35:24;13.90;99.90
41876;DHT22;27555;50.808;4.402;2023-08-31T04:37:50;13.90;99.90
41876;DHT22;27555;50.808;4.402;2023-08-31T04:40:15;13.90;99.90
41876;DHT22;27555;50.808;4.402;2023-08-31T04:42:42;13.90;99.90
41876;DHT22;27555;50.808;4.402;2023-08-31T04:45:07;13.90;99.90
41876;DHT22;27555;50.808;4.402;2023-08-31T04:47:33;13.90;99.90
41876;DHT22;27555;50.808;4.402;2023-08-31T04:49:59;13.90;99.90
41876;DHT22;27555;50.808;4.402;2023-08-31T04:52:25;13.90;99.90
41876;DHT22;27555;50.808;4.402;2023-08-31T04:54:50;13.90;99.90
41876;DHT22;27555;50.808;4.402;2023-08-31T04:57:16;13.90;99.90
41876;DHT22;27555;50.808;4.402;2023-08-31T04:59:41;13.90;99.90
41876;DHT22;27555;50.808;4.402;2023-08-31T05:02:07;13.80;99.90
41876;DHT22;27555;50.808;4.402;2023-08-31T05:04:32;13.80;99.90
41876;DHT22;27555;50.808;4.402;2023-08-31T05:06:58;13.80;99.90
41876;DHT22;27555;50.808;4.402;2023-08-31T05:09:25;13.80;99.90
41876;DHT22;27555;50.808;4.402;2023-08-31T05:11:50;13.70;99.90
41876;DHT22;27555;50.808;4.402;2023-08-31T05:14:16;13.80;99.90
41876;DHT22;27555;50.808;4.402;2023-08-31T05:16:42;13.80;99.90
41876;DHT22;27555;50.808;4.402;2023-08-31T05:19:09;13.90;99.90
41876;DHT22;27555;50.808;4.402;2023-08-31T05:21:35;14.00;99.90
41876;DHT22;27555;50.808;4.402;2023-08-31T05:24:00;13.90;99.90
41876;DHT22;27555;50.808;4.402;2023-08-31T05:26:26;14.00;99.90
41876;DHT22;27555;50.808;4.402;2023-08-31T05:28:52;14.00;99.90
41876;DHT22;27555;50.808;4.402;2023-08-31T05:31:17;14.00;99.90
41876;DHT22;27555;50.808;4.402;2023-08-31T05:33:43;14.00;99.90
41876;DHT22;27555;50.808;4.402;2023-08-31T05:36:08;14.00;99.90
41876;DHT22;27555;50.808;4.402;2023-08-31T05:38:34;14.10;99.90
41876;DHT22;27555;50.808;4.402;2023-08-31T05:41:09;14.00;99.90
41876;DHT22;27555;50.808;4.402;2023-08-31T05:43:36;13.90;99.90
41876;DHT22;27555;50.808;4.402;2023-08-31T05:46:02;13.90;99.90
41876;DHT22;27555;50.808;4.402;2023-08-31T05:48:29;14.10;99.90
41876;DHT22;27555;50.808;4.402;2023-08-31T05:50:55;14.30;99.90
41876;DHT22;27555;50.808;4.402;2023-08-31T05:53:21;14.30;99.90
41876;DHT22;27555;50.808;4.402;2023-08-31T05:55:47;14.30;99.90
41876;DHT22;27555;50.808;4.402;2023-08-31T05:58:12;14.30;99.90
41876;DHT22;27555;50.808;4.402;2023-08-31T06:00:38;14.40;99.90
41876;DHT22;27555;50.808;4.402;2023-08-31T06:03:04;14.30;99.90
41876;DHT22;27555;50.808;4.402;2023-08-31T06:05:31;14.40;99.90
41876;DHT22;27555;50.808;4.402;2023-08-31T06:07:57;14.50;99.90
41876;DHT22;27555;50.808;4.402;2023-08-31T06:10:23;14.60;99.90
41876;DHT22;27555;50.808;4.402;2023-08-31T06:12:50;14.60;99.90
41876;DHT22;27555;50.808;4.402;2023-08-31T06:15:18;14.60;99.90
41876;DHT22;27555;50.808;4.402;2023-08-31T06:17:43;14.70;99.90
41876;DHT22;27555;50.808;4.402;2023-08-31T06:20:10;14.80;99.90
41876;DHT22;27555;50.808;4.402;2023-08-31T06:22:35;14.90;99.90
41876;DHT22;27555;50.808;4.402;2023-08-31T06:25:01;14.90;99.90
41876;DHT22;27555;50.808;4.402;2023-08-31T06:27:29;14.90;99.90
41876;DHT22;27555;50.808;4.402;2023-08-31T06:29:54;15.00;99.90
41876;DHT22;27555;50.808;4.402;2023-08-31T06:32:21;14.90;99.90
41876;DHT22;27555;50.808;4.402;2023-08-31T06:34:47;14.90;99.90
41876;DHT22;27555;50.808;4.402;2023-08-31T06:37:12;15.10;99.90
41876;DHT22;27555;50.808;4.402;2023-08-31T06:39:38;15.00;99.90
41876;DHT22;27555;50.808;4.402;2023-08-31T06:42:04;15.20;99.90
41876;DHT22;27555;50.808;4.402;2023-08-31T06:44:30;15.40;99.90
41876;DHT22;27555;50.808;4.402;2023-08-31T06:46:56;15.40;99.90
41876;DHT22;27555;50.808;4.402;2023-08-31T06:49:22;15.50;99.90
41876;DHT22;27555;50.808;4.402;2023-08-31T06:51:48;15.50;99.90
41876;DHT22;27555;50.808;4.402;2023-08-31T06:54:14;15.70;99.90
41876;DHT22;27555;50.808;4.402;2023-08-31T06:56:39;15.70;99.90
41876;DHT22;27555;50.808;4.402;2023-08-31T06:59:05;15.70;99.90
41876;DHT22;27555;50.808;4.402;2023-08-31T07:01:31;15.90;99.90
41876;DHT22;27555;50.808;4.402;2023-08-31T07:03:58;16.00;99.90
41876;DHT22;27555;50.808;4.402;2023-08-31T07:06:24;16.10;99.90
41876;DHT22;27555;50.808;4.402;2023-08-31T07:08:50;16.30;99.90
41876;DHT22;27555;50.808;4.402;2023-08-31T07:11:16;16.40;99.90
41876;DHT22;27555;50.808;4.402;2023-08-31T07:13:42;16.30;99.90
41876;DHT22;27555;50.808;4.402;2023-08-31T07:16:08;16.50;99.90
41876;DHT22;27555;50.808;4.402;2023-08-31T07:18:35;16.70;99.90
41876;DHT22;27555;50.808;4.402;2023-08-31T07:21:00;16.50;99.90
41876;DHT22;27555;50.808;4.402;2023-08-31T07:23:26;16.90;99.90
41876;DHT22;27555;50.808;4.402;2023-08-31T07:25:51;18.10;99.90
41876;DHT22;27555;50.808;4.402;2023-08-31T07:28:18;18.90;99.90
41876;DHT22;27555;50.808;4.402;2023-08-31T07:30:44;20.00;99.90
41876;DHT22;27555;50.808;4.402;2023-08-31T07:33:10;20.90;99.90
41876;DHT22;27555;50.808;4.402;2023-08-31T07:35:35;21.80;99.90
41876;DHT22;27555;50.808;4.402;2023-08-31T07:38:01;22.20;99.90
41876;DHT22;27555;50.808;4.402;2023-08-31T07:40:27;22.50;99.90
41876;DHT22;27555;50.808;4.402;2023-08-31T07:42:52;23.00;99.90
41876;DHT22;27555;50.808;4.402;2023-08-31T07:45:18;23.20;99.70
41876;DHT22;27555;50.808;4.402;2023-08-31T07:47:43;23.20;99.60
41876;DHT22;27555;50.808;4.402;2023-08-31T07:50:10;23.60;99.10
41876;DHT22;27555;50.808;4.402;2023-08-31T07:52:35;23.70;99.00
41876;DHT22;27555;50.808;4.402;2023-08-31T07:55:02;24.20;98.10
41876;DHT22;27555;50.808;4.402;2023-08-31T07:57:29;24.40;97.70
41876;DHT22;27555;50.808;4.402;2023-08-31T07:59:54;24.20;97.90
41876;DHT22;27555;50.808;4.402;2023-08-31T08:02:20;24.10;97.80
41876;DHT22;27555;50.808;4.402;2023-08-31T08:04:46;24.10;97.80
41876;DHT22;27555;50.808;4.402;2023-08-31T08:07:12;24.50;97.50
41876;DHT22;27555;50.808;4.402;2023-08-31T08:09:37;24.40;97.20
41876;DHT22;27555;50.808;4.402;2023-08-31T08:12:03;24.20;97.20
41876;DHT22;27555;50.808;4.402;2023-08-31T08:14:29;24.50;96.90
41876;DHT22;27555;50.808;4.402;2023-08-31T08:16:55;24.10;97.10
41876;DHT22;27555;50.808;4.402;2023-08-31T08:19:24;23.90;97.60
41876;DHT22;27555;50.808;4.402;2023-08-31T08:21:52;23.70;97.60
41876;DHT22;27555;50.808;4.402;2023-08-31T08:24:18;24.30;97.70
41876;DHT22;27555;50.808;4.402;2023-08-31T08:26:44;24.90;96.90
41876;DHT22;27555;50.808;4.402;2023-08-31T08:29:09;25.50;95.90
41876;DHT22;27555;50.808;4.402;2023-08-31T08:31:35;25.70;95.80
41876;DHT22;27555;50.808;4.402;2023-08-31T08:34:01;25.80;95.60
41876;DHT22;27555;50.808;4.402;2023-08-31T08:36:28;26.30;95.50
41876;DHT22;27555;50.808;4.402;2023-08-31T08:38:54;26.60;94.70
41876;DHT22;27555;50.808;4.402;2023-08-31T08:41:23;26.80;94.90
41876;DHT22;27555;50.808;4.402;2023-08-31T08:43:51;27.20;94.20
41876;DHT22;27555;50.808;4.402;2023-08-31T08:46:17;27.40;94.20
41876;DHT22;27555;50.808;4.402;2023-08-31T08:48:44;27.90;93.80
41876;DHT22;27555;50.808;4.402;2023-08-31T08:51:10;28.40;93.20
41876;DHT22;27555;50.808;4.402;2023-08-31T08:53:36;28.30;93.20
41876;DHT22;27555;50.808;4.402;2023-08-31T08:56:04;28.50;92.90
41876;DHT22;27555;50.808;4.402;2023-08-31T08:58:30;28.90;92.60
41876;DHT22;27555;50.808;4.402;2023-08-31T09:00:55;29.10;92.30
41876;DHT22;27555;50.808;4.402;2023-08-31T09:03:25;29.00;92.50
41876;DHT22;27555;50.808;4.402;2023-08-31T09:05:51;29.20;92.10
41876;DHT22;27555;50.808;4.402;2023-08-31T09:08:26;29.40;91.70
41876;DHT22;27555;50.808;4.402;2023-08-31T09:10:52;28.90;91.90
41876;DHT22;27555;50.808;4.402;2023-08-31T09:13:18;28.50;91.70
41876;DHT22;27555;50.808;4.402;2023-08-31T09:15:48;28.30;92.00
41876;DHT22;27555;50.808;4.402;2023-08-31T09:18:15;28.70;91.90
41876;DHT22;27555;50.808;4.402;2023-08-31T09:20:45;28.70;91.80
41876;DHT22;27555;50.808;4.402;2023-08-31T09:23:13;28.40;91.60
41876;DHT22;27555;50.808;4.402;2023-08-31T09:25:50;28.10;91.80
41876;DHT22;27555;50.808;4.402;2023-08-31T09:28:18;27.90;91.80
41876;DHT22;27555;50.808;4.402;2023-08-31T09:30:46;28.30;91.90
41876;DHT22;27555;50.808;4.402;2023-08-31T09:33:19;28.80;91.50
41876;DHT22;27555;50.808;4.402;2023-08-31T09:35:53;29.10;91.20
41876;DHT22;27555;50.808;4.402;2023-08-31T09:38:19;29.40;90.90
41876;DHT22;27555;50.808;4.402;2023-08-31T09:40:45;29.20;91.00
41876;DHT22;27555;50.808;4.402;2023-08-31T09:43:11;29.10;91.00
41876;DHT22;27555;50.808;4.402;2023-08-31T09:45:37;29.10;91.30
41876;DHT22;27555;50.808;4.402;2023-08-31T09:48:04;29.50;90.90
41876;DHT22;27555;50.808;4.402;2023-08-31T09:50:32;28.70;91.40
41876;DHT22;27555;50.808;4.402;2023-08-31T09:53:03;29.10;91.10
41876;DHT22;27555;50.808;4.402;2023-08-31T09:55:30;28.30;91.90
41876;DHT22;27555;50.808;4.402;2023-08-31T09:57:57;27.20;92.00
41876;DHT22;27555;50.808;4.402;2023-08-31T10:00:27;26.70;92.70
41876;DHT22;27555;50.808;4.402;2023-08-31T10:02:56;26.20;93.20
41876;DHT22;27555;50.808;4.402;2023-08-31T10:05:23;25.50;93.60
41876;DHT22;27555;50.808;4.402;2023-08-31T10:07:50;24.50;94.80
41876;DHT22;27555;50.808;4.402;2023-08-31T10:10:16;24.70;95.00
41876;DHT22;27555;50.808;4.402;2023-08-31T10:12:43;26.00;94.00
41876;DHT22;27555;50.808;4.402;2023-08-31T10:15:11;26.80;93.60
41876;DHT22;27555;50.808;4.402;2023-08-31T10:17:39;27.60;92.50
41876;DHT22;27555;50.808;4.402;2023-08-31T10:20:08;26.70;92.70
41876;DHT22;27555;50.808;4.402;2023-08-31T10:22:35;25.60;93.60
41876;DHT22;27555;50.808;4.402;2023-08-31T10:25:02;25.10;93.70
41876;DHT22;27555;50.808;4.402;2023-08-31T10:27:42;24.80;94.40
41876;DHT22;27555;50.808;4.402;2023-08-31T10:38:26;23.70;95.20
41876;DHT22;27555;50.808;4.402;2023-08-31T10:51:31;25.20;94.40
41876;DHT22;27555;50.808;4.402;2023-08-31T10:54:13;26.80;93.40
41876;DHT22;27555;50.808;4.402;2023-08-31T10:59:52;26.60;92.70
41876;DHT22;27555;50.808;4.402;2023-08-31T11:02:47;25.90;93.50
41876;DHT22;27555;50.808;4.402;2023-08-31T11:05:17;26.40;93.30
41876;DHT22;27555;50.808;4.402;2023-08-31T11:07:47;26.50;93.10
41876;DHT22;27555;50.808;4.402;2023-08-31T11:10:18;26.30;92.70
41876;DHT22;27555;50.808;4.402;2023-08-31T11:12:46;26.50;92.80
41876;DHT22;27555;50.808;4.402;2023-08-31T11:15:19;25.80;93.20
41876;DHT22;27555;50.808;4.402;2023-08-31T11:17:46;25.40;93.50
41876;DHT22;27555;50.808;4.402;2023-08-31T11:20:14;25.40;93.00
41876;DHT22;27555;50.808;4.402;2023-08-31T11:22:48;25.00;93.50
41876;DHT22;27555;50.808;4.402;2023-08-31T11:25:21;24.20;94.00
41876;DHT22;27555;50.808;4.402;2023-08-31T11:28:08;24.30;94.30
41876;DHT22;27555;50.808;4.402;2023-08-31T11:30:36;24.00;94.50
41876;DHT22;27555;50.808;4.402;2023-08-31T11:33:03;24.10;94.10
41876;DHT22;27555;50.808;4.402;2023-08-31T11:35:33;24.70;93.70
41876;DHT22;27555;50.808;4.402;2023-08-31T11:37:59;25.80;93.00
41876;DHT22;27555;50.808;4.402;2023-08-31T11:40:28;27.60;91.10
41876;DHT22;27555;50.808;4.402;2023-08-31T11:42:54;27.50;90.90
41876;DHT22;27555;50.808;4.402;2023-08-31T11:45:21;26.50;91.60
41876;DHT22;27555;50.808;4.402;2023-08-31T11:47:48;26.30;91.80
41876;DHT22;27555;50.808;4.402;2023-08-31T11:50:15;25.90;92.20
41876;DHT22;27555;50.808;4.402;2023-08-31T11:52:41;26.30;92.10
41876;DHT22;27555;50.808;4.402;2023-08-31T11:55:15;26.90;91.50
41876;DHT22;27555;50.808;4.402;2023-08-31T11:57:52;26.30;91.30
41876;DHT22;27555;50.808;4.402;2023-08-31T12:00:19;25.50;91.90
41876;DHT22;27555;50.808;4.402;2023-08-31T12:02:45;25.10;92.10
41876;DHT22;27555;50.808;4.402;2023-08-31T12:05:14;25.00;92.40
41876;DHT22;27555;50.808;4.402;2023-08-31T12:07:40;24.70;92.70
41876;DHT22;27555;50.808;4.402;2023-08-31T12:10:07;24.90;92.70
41876;DHT22;27555;50.808;4.402;2023-08-31T12:12:33;24.40;92.70
41876;DHT22;27555;50.808;4.402;2023-08-31T12:15:01;24.30;93.20
41876;DHT22;27555;50.808;4.402;2023-08-31T12:17:29;24.00;93.10
41876;DHT22;27555;50.808;4.402;2023-08-31T12:20:03;24.10;93.10
41876;DHT22;27555;50.808;4.402;2023-08-31T12:22:32;23.80;93.10
41876;DHT22;27555;50.808;4.402;2023-08-31T12:24:58;23.70;93.10
41876;DHT22;27555;50.808;4.402;2023-08-31T12:27:23;23.70;93.20
41876;DHT22;27555;50.808;4.402;2023-08-31T12:29:49;23.40;93.70
41876;DHT22;27555;50.808;4.402;2023-08-31T12:32:16;23.00;94.00
41876;DHT22;27555;50.808;4.402;2023-08-31T12:34:43;23.00;94.00
41876;DHT22;27555;50.808;4.402;2023-08-31T12:37:09;23.00;94.10
41876;DHT22;27555;50.808;4.402;2023-08-31T12:39:36;23.20;93.80
41876;DHT22;27555;50.808;4.402;2023-08-31T12:42:03;23.00;93.90
41876;DHT22;27555;50.808;4.402;2023-08-31T12:44:28;23.00;94.00
41876;DHT22;27555;50.808;4.402;2023-08-31T12:46:54;23.00;94.00
41876;DHT22;27555;50.808;4.402;2023-08-31T12:49:19;23.10;93.90
41876;DHT22;27555;50.808;4.402;2023-08-31T12:51:46;22.90;94.00
41876;DHT22;27555;50.808;4.402;2023-08-31T12:54:11;23.00;94.00
41876;DHT22;27555;50.808;4.402;2023-08-31T12:56:37;22.90;93.70
41876;DHT22;27555;50.808;4.402;2023-08-31T12:59:03;22.80;93.90
41876;DHT22;27555;50.808;4.402;2023-08-31T13:01:31;22.60;93.90
41876;DHT22;27555;50.808;4.402;2023-08-31T13:03:58;22.80;93.40
41876;DHT22;27555;50.808;4.402;2023-08-31T13:06:24;22.70;93.50
41876;DHT22;27555;50.808;4.402;2023-08-31T13:08:50;22.70;93.40
41876;DHT22;27555;50.808;4.402;2023-08-31T13:11:16;22.80;93.30
41876;DHT22;27555;50.808;4.402;2023-08-31T13:13:43;22.70;93.40
41876;DHT22;27555;50.808;4.402;2023-08-31T13:16:09;22.60;93.30
41876;DHT22;27555;50.808;4.402;2023-08-31T13:18:34;22.60;93.10
41876;DHT22;27555;50.808;4.402;2023-08-31T13:21:00;22.70;92.60
41876;DHT22;27555;50.808;4.402;2023-08-31T13:23:26;22.60;93.10
41876;DHT22;27555;50.808;4.402;2023-08-31T13:25:52;22.60;93.30
41876;DHT22;27555;50.808;4.402;2023-08-31T13:28:18;22.60;93.50
41876;DHT22;27555;50.808;4.402;2023-08-31T13:30:44;22.50;93.70
41876;DHT22;27555;50.808;4.402;2023-08-31T13:33:09;22.60;93.70
41876;DHT22;27555;50.808;4.402;2023-08-31T13:35:35;23.00;93.30
41876;DHT22;27555;50.808;4.402;2023-08-31T13:38:01;23.00;93.10
41876;DHT22;27555;50.808;4.402;2023-08-31T13:40:28;23.10;93.20
41876;DHT22;27555;50.808;4.402;2023-08-31T13:42:55;23.10;92.90
41876;DHT22;27555;50.808;4.402;2023-08-31T13:45:29;23.20;93.00
41876;DHT22;27555;50.808;4.402;2023-08-31T13:47:56;23.30;92.90
41876;DHT22;27555;50.808;4.402;2023-08-31T13:50:22;23.20;92.90
41876;DHT22;27555;50.808;4.402;2023-08-31T13:52:47;22.90;92.80
41876;DHT22;27555;50.808;4.402;2023-08-31T13:55:13;22.90;92.50
41876;DHT22;27555;50.808;4.402;2023-08-31T13:57:42;22.90;92.80
41876;DHT22;27555;50.808;4.402;2023-08-31T14:00:08;23.00;93.10
41876;DHT22;27555;50.808;4.402;2023-08-31T14:02:35;23.10;93.20
41876;DHT22;27555;50.808;4.402;2023-08-31T14:05:02;23.00;93.20
41876;DHT22;27555;50.808;4.402;2023-08-31T14:07:28;23.20;93.00
41876;DHT22;27555;50.808;4.402;2023-08-31T14:09:53;23.00;92.70
41876;DHT22;27555;50.808;4.402;2023-08-31T14:12:19;22.80;92.80
41876;DHT22;27555;50.808;4.402;2023-08-31T14:14:45;22.60;93.10
41876;DHT22;27555;50.808;4.402;2023-08-31T14:17:11;22.30;93.50
41876;DHT22;27555;50.808;4.402;2023-08-31T14:19:37;22.10;93.50
41876;DHT22;27555;50.808;4.402;2023-08-31T14:22:04;22.00;94.00
41876;DHT22;27555;50.808;4.402;2023-08-31T14:24:30;21.80;94.50
41876;DHT22;27555;50.808;4.402;2023-08-31T14:26:56;21.80;94.90
41876;DHT22;27555;50.808;4.402;2023-08-31T14:29:23;22.00;95.10
41876;DHT22;27555;50.808;4.402;2023-08-31T14:31:48;22.10;94.80
41876;DHT22;27555;50.808;4.402;2023-08-31T14:34:14;22.20;94.50
41876;DHT22;27555;50.808;4.402;2023-08-31T14:36:40;22.10;94.80
41876;DHT22;27555;50.808;4.402;2023-08-31T14:39:05;22.10;94.40
41876;DHT22;27555;50.808;4.402;2023-08-31T14:41:31;22.10;94.60
41876;DHT22;27555;50.808;4.402;2023-08-31T14:43:57;22.20;94.50
41876;DHT22;27555;50.808;4.402;2023-08-31T14:46:22;21.80;94.70
41876;DHT22;27555;50.808;4.402;2023-08-31T14:48:50;21.80;94.80
41876;DHT22;27555;50.808;4.402;2023-08-31T14:51:16;21.70;95.10
41876;DHT22;27555;50.808;4.402;2023-08-31T14:53:42;22.00;94.80
41876;DHT22;27555;50.808;4.402;2023-08-31T14:56:08;21.90;94.80
41876;DHT22;27555;50.808;4.402;2023-08-31T14:58:34;21.70;95.20
41876;DHT22;27555;50.808;4.402;2023-08-31T15:01:01;21.90;95.20
41876;DHT22;27555;50.808;4.402;2023-08-31T15:03:26;22.20;95.10
41876;DHT22;27555;50.808;4.402;2023-08-31T15:05:52;22.10;95.00
41876;DHT22;27555;50.808;4.402;2023-08-31T15:08:18;22.20;94.40
41876;DHT22;27555;50.808;4.402;2023-08-31T15:10:43;22.00;94.50
41876;DHT22;27555;50.808;4.402;2023-08-31T15:13:09;22.00;94.50
41876;DHT22;27555;50.808;4.402;2023-08-31T15:15:35;21.90;94.50
41876;DHT22;27555;50.808;4.402;2023-08-31T15:18:00;21.80;95.00
41876;DHT22;27555;50.808;4.402;2023-08-31T15:20:26;21.80;95.00
41876;DHT22;27555;50.808;4.402;2023-08-31T15:22:53;21.80;95.10
41876;DHT22;27555;50.808;4.402;2023-08-31T15:25:19;21.70;94.70
41876;DHT22;27555;50.808;4.402;2023-08-31T15:27:44;21.60;94.80
41876;DHT22;27555;50.808;4.402;2023-08-31T15:30:11;21.60;94.80
41876;DHT22;27555;50.808;4.402;2023-08-31T15:32:37;21.60;95.10
41876;DHT22;27555;50.808;4.402;2023-08-31T15:35:03;21.70;95.00
41876;DHT22;27555;50.808;4.402;2023-08-31T15:37:30;21.70;94.80
41876;DHT22;27555;50.808;4.402;2023-08-31T15:39:56;21.40;95.30
41876;DHT22;27555;50.808;4.402;2023-08-31T15:42:25;21.20;95.70
41876;DHT22;27555;50.808;4.402;2023-08-31T15:44:50;21.20;95.80
41876;DHT22;27555;50.808;4.402;2023-08-31T15:47:18;21.20;96.00
41876;DHT22;27555;50.808;4.402;2023-08-31T15:49:43;21.10;96.20
41876;DHT22;27555;50.808;4.402;2023-08-31T15:52:09;21.30;96.10
41876;DHT22;27555;50.808;4.402;2023-08-31T15:54:35;21.40;95.90